Time;durP1;ratioP1;P1;durP2;ratioP2;P2;SDS_P1;SDS_P2;PMS_P1;PMS_P2;Temp;Humidity;BMP_temperature;BMP_pressure;BME280_temperature;BME280_humidity;BME280_pressure;Samples;Min_cycle;Max_cycle;Signal;HPM_P1;HPM_P2
2022/01/19 00:00:10;;;;;;;33.17;16.67;;;;;;;1.29;100.00;103209.56;5071204;28;20085;-65
2022/01/19 00:02:35;;;;;;;31.70;15.68;;;;;;;1.27;100.00;103198.25;5071392;28;20028;-66
2022/01/19 00:05:01;;;;;;;29.25;15.38;;;;;;;1.21;100.00;103197.75;5070024;28;20044;-65
2022/01/19 00:07:26;;;;;;;29.58;14.95;;;;;;;1.11;100.00;103196.50;5070715;28;20048;-65
2022/01/19 00:09:51;;;;;;;29.73;14.13;;;;;;;1.07;100.00;103194.03;5071549;28;20020;-65
2022/01/19 00:12:17;;;;;;;24.20;13.43;;;;;;;1.09;100.00;103191.31;5071256;28;20016;-66
2022/01/19 00:14:42;;;;;;;26.13;13.48;;;;;;;1.14;100.00;103196.34;5071422;28;20035;-66
2022/01/19 00:17:07;;;;;;;40.13;17.88;;;;;;;1.15;100.00;103195.41;5070096;28;20043;-66
2022/01/19 00:19:33;;;;;;;26.40;13.45;;;;;;;1.12;100.00;103195.56;5071402;28;20017;-66
2022/01/19 00:21:58;;;;;;;26.92;13.20;;;;;;;1.03;100.00;103187.22;5071058;28;20047;-65
2022/01/19 00:24:24;;;;;;;26.33;14.60;;;;;;;0.97;100.00;103189.28;5071229;28;20025;-65
2022/01/19 00:26:49;;;;;;;23.75;12.90;;;;;;;0.92;100.00;103181.66;5071273;28;20028;-66
2022/01/19 00:29:14;;;;;;;23.00;11.57;;;;;;;0.87;100.00;103170.53;5071239;28;20081;-65
2022/01/19 00:31:40;;;;;;;29.75;13.20;;;;;;;0.85;100.00;103154.81;5079894;28;20031;-65
2022/01/19 00:34:05;;;;;;;36.20;15.73;;;;;;;0.83;100.00;103126.94;5090314;28;20081;-65
2022/01/19 00:36:30;;;;;;;37.60;15.80;;;;;;;0.82;100.00;103106.84;5090504;28;20028;-65
2022/01/19 00:38:56;;;;;;;29.13;14.32;;;;;;;0.88;100.00;103099.50;5075396;28;20530;-66
2022/01/19 00:41:21;;;;;;;32.95;14.88;;;;;;;0.92;100.00;103094.97;5071030;28;20032;-65
2022/01/19 00:43:46;;;;;;;26.40;15.23;;;;;;;0.95;100.00;103089.53;5069438;28;20040;-66
2022/01/19 00:46:12;;;;;;;30.58;14.55;;;;;;;0.91;100.00;103087.16;5070610;28;20128;-65
2022/01/19 00:48:40;;;;;;;26.10;14.40;;;;;;;0.86;100.00;103092.63;5070400;28;20094;-65
2022/01/19 00:51:05;;;;;;;32.38;16.38;;;;;;;0.81;100.00;103092.88;5069571;28;20117;-65
2022/01/19 00:53:31;;;;;;;44.33;14.43;;;;;;;0.76;100.00;103110.66;5070705;28;20452;-65
2022/01/19 00:55:56;;;;;;;32.20;16.80;;;;;;;0.70;100.00;103124.06;5070647;28;20062;-65
2022/01/19 00:58:22;;;;;;;38.28;18.33;;;;;;;0.67;100.00;103128.63;5069264;28;20345;-65
2022/01/19 01:00:47;;;;;;;29.77;16.65;;;;;;;0.70;100.00;103133.72;5070390;28;20105;-65
2022/01/19 01:03:13;;;;;;;36.85;15.57;;;;;;;0.75;100.00;103145.69;5070437;28;20086;-65
2022/01/19 01:05:38;;;;;;;58.38;19.73;;;;;;;0.76;100.00;103125.53;5069711;28;20056;-65
2022/01/19 01:08:04;;;;;;;41.08;18.55;;;;;;;0.71;100.00;103110.03;5068801;28;20038;-66
2022/01/19 01:10:31;;;;;;;36.85;16.88;;;;;;;0.74;100.00;103107.25;5081270;28;20465;-66
2022/01/19 01:13:16;;;;;;;29.92;15.95;;;;;;;0.73;100.00;103083.66;5089782;28;20032;-65
2022/01/19 01:18:22;;;;;;;32.05;16.30;;;;;;;0.80;100.00;103080.66;5089085;28;20031;-65
2022/01/19 01:20:50;;;;;;;29.70;16.95;;;;;;;0.82;100.00;103076.19;5089911;28;20036;-66
2022/01/19 01:23:17;;;;;;;32.28;15.10;;;;;;;0.83;100.00;103077.03;5089531;28;20069;-65
2022/01/19 01:25:42;;;;;;;32.08;16.40;;;;;;;0.82;100.00;103060.41;5089461;28;20118;-65
2022/01/19 01:28:08;;;;;;;26.58;13.95;;;;;;;0.77;100.00;103059.81;5089589;28;20111;-66
2022/01/19 01:30:35;;;;;;;27.35;13.55;;;;;;;0.75;100.00;103051.16;5089416;28;20066;-65
2022/01/19 01:33:00;;;;;;;31.08;16.20;;;;;;;0.70;100.00;103040.03;5089379;28;20036;-65
2022/01/19 01:35:26;;;;;;;35.33;15.07;;;;;;;0.68;100.00;103036.63;5077520;28;20036;-65
2022/01/19 01:37:51;;;;;;;30.75;14.18;;;;;;;0.61;100.00;103022.97;5069986;28;20032;-66
2022/01/19 01:40:17;;;;;;;54.83;16.75;;;;;;;0.53;100.00;103000.66;5070192;28;20058;-65
2022/01/19 01:42:44;;;;;;;44.65;15.40;;;;;;;0.47;100.00;102990.47;5069969;28;20071;-65
2022/01/19 01:45:13;;;;;;;31.33;15.68;;;;;;;0.44;100.00;102979.19;5070079;28;20345;-65
2022/01/19 01:47:44;;;;;;;28.05;13.35;;;;;;;0.36;100.00;102962.97;5070100;28;20029;-65
2022/01/19 01:55:24;;;;;;;27.67;14.20;;;;;;;0.40;100.00;102974.19;5070144;28;20043;-66
2022/01/19 01:57:50;;;;;;;33.80;14.98;;;;;;;0.42;100.00;102977.59;5069415;28;20395;-65
2022/01/19 02:00:25;;;;;;;30.23;15.57;;;;;;;0.42;100.00;102969.72;5069859;28;20070;-65
2022/01/19 02:02:50;;;;;;;28.48;13.60;;;;;;;0.43;100.00;102976.66;5070162;28;20076;-65
2022/01/19 02:05:17;;;;;;;25.33;14.30;;;;;;;0.40;100.00;102979.44;5068248;28;20462;-66
2022/01/19 02:07:59;;;;;;;40.15;16.27;;;;;;;0.38;100.00;102984.75;5069444;28;20070;-65
2022/01/19 02:15:58;;;;;;;33.50;16.67;;;;;;;0.24;100.00;102968.88;5089451;28;20051;-65
2022/01/19 02:23:56;;;;;;;32.40;16.85;;;;;;;0.20;100.00;102936.66;5088894;28;20038;-65
2022/01/19 02:26:30;;;;;;;34.17;18.05;;;;;;;0.24;100.00;102934.75;5089003;28;20035;-65
2022/01/19 02:40:19;;;;;;;35.83;15.10;;;;;;;0.26;100.00;102896.13;5093012;28;20040;-65
2022/01/19 02:42:13;;;;;;;27.90;13.15;;;;;;;0.22;100.00;102899.84;5078864;28;20032;-65
2022/01/19 02:49:51;;;;;;;27.15;13.68;;;;;;;0.12;100.00;102880.25;5092819;28;20085;-65
2022/01/19 02:52:18;;;;;;;28.73;14.68;;;;;;;0.06;100.00;102870.09;5092428;28;20024;-65
2022/01/19 02:54:44;;;;;;;30.33;15.60;;;;;;;0.05;100.00;102853.47;5092313;28;20031;-65
2022/01/19 02:57:12;;;;;;;29.67;15.32;;;;;;;-0.02;100.00;102834.59;5092428;28;20016;-65
2022/01/19 03:10:35;;;;;;;31.00;16.08;;;;;;;-0.10;100.00;102812.31;5091961;28;20042;-65
2022/01/19 03:13:00;;;;;;;28.50;13.30;;;;;;;-0.08;100.00;102810.44;5091973;28;20031;-65
2022/01/19 03:15:27;;;;;;;30.27;15.00;;;;;;;-0.11;100.00;102800.13;5091834;28;20086;-65
2022/01/19 03:17:57;;;;;;;25.38;13.85;;;;;;;-0.13;100.00;102797.59;5091961;28;20085;-65
2022/01/19 03:20:22;;;;;;;30.90;13.95;;;;;;;-0.13;100.00;102797.59;5090728;28;20066;-65
2022/01/19 03:23:04;;;;;;;38.92;16.25;;;;;;;-0.10;100.00;102805.31;5091733;28;20067;-65
2022/01/19 03:25:30;;;;;;;32.03;16.50;;;;;;;-0.04;100.00;102804.97;5092088;28;20451;-65
2022/01/19 03:27:55;;;;;;;41.10;19.58;;;;;;;0.07;100.00;102803.56;5091781;28;20113;-65
2022/01/19 03:30:21;;;;;;;39.47;21.73;;;;;;;0.17;100.00;102803.00;5091824;28;20387;-65
2022/01/19 03:32:47;;;;;;;31.58;18.80;;;;;;;0.25;100.00;102784.25;5091655;28;20475;-65
2022/01/19 03:35:14;;;;;;;35.22;17.20;;;;;;;0.29;100.00;102782.28;5091740;28;20054;-65
2022/01/19 03:37:39;;;;;;;32.45;16.95;;;;;;;0.29;100.00;102771.78;5091628;28;20073;-65
2022/01/19 03:40:07;;;;;;;36.80;16.17;;;;;;;0.30;100.00;102769.09;5091452;28;20360;-65
2022/01/19 03:42:32;;;;;;;30.80;16.23;;;;;;;0.31;100.00;102768.16;5090444;28;20064;-65
2022/01/19 03:44:57;;;;;;;32.00;17.20;;;;;;;0.31;100.00;102764.69;5091535;28;20062;-65
2022/01/19 03:47:26;;;;;;;33.05;17.95;;;;;;;0.26;100.00;102759.69;5091508;28;20032;-66
2022/01/19 03:49:51;;;;;;;34.00;17.98;;;;;;;0.30;100.00;102755.13;5091390;28;20055;-65
2022/01/19 03:52:16;;;;;;;27.95;14.82;;;;;;;0.21;100.00;102727.63;5091194;28;20122;-65
2022/01/19 03:54:44;;;;;;;34.78;20.05;;;;;;;0.32;100.00;102742.78;5091220;28;20123;-65
2022/01/19 03:57:10;;;;;;;34.55;18.42;;;;;;;0.34;100.00;102738.28;5091266;28;20055;-65
2022/01/19 03:59:36;;;;;;;33.60;17.33;;;;;;;0.34;100.00;102735.66;5091285;28;20034;-65
2022/01/19 04:02:02;;;;;;;35.80;16.80;;;;;;;0.31;100.00;102726.16;5091169;28;20032;-66
2022/01/19 04:04:50;;;;;;;37.38;19.30;;;;;;;0.34;100.00;102733.91;5090887;28;20089;-65
2022/01/19 04:07:15;;;;;;;34.83;17.27;;;;;;;0.35;100.00;102737.38;5090411;28;20032;-65
2022/01/19 04:09:45;;;;;;;36.38;16.60;;;;;;;0.35;100.00;102729.50;5089622;28;20560;-65
2022/01/19 04:12:15;;;;;;;33.28;14.02;;;;;;;0.36;100.00;102715.44;5090651;28;20028;-65
2022/01/19 04:14:40;;;;;;;37.10;17.98;;;;;;;0.34;100.00;102715.53;5090528;28;20490;-65
2022/01/19 04:17:12;;;;;;;34.47;17.70;;;;;;;0.33;100.00;102705.94;5090091;28;20035;-65
2022/01/19 04:19:46;;;;;;;33.67;18.08;;;;;;;0.33;100.00;102713.81;5090557;28;20107;-65
2022/01/19 04:22:21;;;;;;;33.95;16.13;;;;;;;0.32;100.00;102719.16;5090756;28;20059;-65
2022/01/19 04:24:48;;;;;;;35.58;18.15;;;;;;;0.33;100.00;102721.69;5090553;28;20055;-65
2022/01/19 04:29:49;;;;;;;37.50;16.25;;;;;;;0.33;100.00;102732.19;5090580;28;20451;-65
2022/01/19 04:32:19;;;;;;;30.65;16.15;;;;;;;0.34;100.00;102727.78;5090538;28;20062;-65
2022/01/19 04:34:47;;;;;;;34.08;16.70;;;;;;;0.22;100.00;102709.16;5090369;28;20556;-65
2022/01/19 05:01:42;;;;;;;37.17;18.05;;;;;;;0.20;100.00;102707.53;5090139;28;20055;-65
2022/01/19 05:04:21;;;;;;;39.80;20.45;;;;;;;0.20;100.00;102700.50;5089831;28;20999;-65
2022/01/19 05:06:51;;;;;;;42.25;19.45;;;;;;;0.18;100.00;102696.28;5089935;28;20450;-65
2022/01/19 05:14:43;;;;;;;42.83;20.52;;;;;;;0.27;100.00;102710.69;5089878;28;20043;-65
2022/01/19 05:17:09;;;;;;;37.13;17.42;;;;;;;0.28;100.00;102704.50;5089613;28;20032;-65
2022/01/19 05:19:34;;;;;;;41.50;21.60;;;;;;;0.27;100.00;102703.66;5089515;28;20032;-65
2022/01/19 05:22:00;;;;;;;41.40;20.92;;;;;;;0.34;100.00;102712.03;5088418;28;20024;-65
2022/01/19 05:24:25;;;;;;;43.33;22.17;;;;;;;0.39;100.00;102710.00;5089563;28;20057;-65
2022/01/19 05:26:52;;;;;;;37.85;21.50;;;;;;;0.41;100.00;102701.13;5089597;28;20141;-65
2022/01/19 05:29:17;;;;;;;37.33;19.75;;;;;;;0.47;100.00;102699.09;5090163;28;20411;-65
2022/01/19 05:31:43;;;;;;;48.17;22.70;;;;;;;0.53;100.00;102707.47;5089464;28;20056;-65
2022/01/19 05:34:08;;;;;;;42.20;21.02;;;;;;;0.58;100.00;102700.19;5089407;28;20455;-66
2022/01/19 05:36:33;;;;;;;44.20;20.95;;;;;;;0.63;100.00;102697.31;5088083;28;20036;-66
2022/01/19 05:39:03;;;;;;;46.00;22.00;;;;;;;0.67;100.00;102704.06;5089363;28;20494;-65
2022/01/19 05:41:28;;;;;;;37.45;21.70;;;;;;;0.71;100.00;102696.84;5089328;28;20532;-65
2022/01/19 05:43:54;;;;;;;39.40;20.50;;;;;;;0.72;100.00;102694.16;5088086;28;20040;-66
2022/01/19 05:46:21;;;;;;;46.35;21.38;;;;;;;0.77;100.00;102699.16;5089175;28;20178;-65
2022/01/19 05:48:46;;;;;;;39.17;19.08;;;;;;;0.74;100.00;102687.03;5089344;28;20394;-65
2022/01/19 05:51:11;;;;;;;32.58;17.67;;;;;;;0.84;100.00;102690.84;5089192;28;20044;-65
2022/01/19 05:53:37;;;;;;;40.75;18.30;;;;;;;0.85;100.00;102682.03;5089418;28;20029;-66
2022/01/19 05:56:02;;;;;;;38.78;19.65;;;;;;;0.91;100.00;102687.84;5088770;28;20070;-65
2022/01/19 05:58:28;;;;;;;35.33;18.25;;;;;;;0.93;100.00;102680.75;5088840;28;20028;-65
2022/01/19 06:00:53;;;;;;;35.05;16.80;;;;;;;0.94;100.00;102674.53;5089191;28;20122;-65
2022/01/19 06:03:18;;;;;;;39.90;19.45;;;;;;;1.00;100.00;102680.31;5088941;28;20044;-65
2022/01/19 06:05:44;;;;;;;41.00;19.65;;;;;;;1.02;100.00;102680.19;5092595;28;20040;-65
2022/01/19 06:08:18;;;;;;;43.80;21.33;;;;;;;0.99;100.00;102669.88;5093429;28;20044;-66
2022/01/19 06:10:48;;;;;;;34.97;18.15;;;;;;;1.06;100.00;102677.31;5093404;28;20111;-65
2022/01/19 06:13:17;;;;;;;34.28;18.08;;;;;;;1.07;100.00;102671.13;5073745;28;20020;-65
2022/01/19 06:15:44;;;;;;;31.77;17.33;;;;;;;1.07;100.00;102679.00;5092797;28;20024;-65
2022/01/19 06:18:11;;;;;;;37.38;20.60;;;;;;;1.10;100.00;102677.97;5093134;28;20024;-66
2022/01/19 06:20:38;;;;;;;36.78;20.88;;;;;;;1.10;100.00;102675.34;5092882;28;20024;-65
2022/01/19 06:23:05;;;;;;;35.28;16.75;;;;;;;1.10;100.00;102667.44;5092950;28;20056;-65
2022/01/19 06:25:30;;;;;;;31.27;17.33;;;;;;;1.12;100.00;102673.47;5091406;28;20360;-65
2022/01/19 06:27:56;;;;;;;38.88;19.27;;;;;;;1.10;100.00;102654.31;5092768;28;20027;-66
2022/01/19 06:30:21;;;;;;;33.75;17.58;;;;;;;1.12;100.00;102649.81;5076700;28;20104;-65
2022/01/19 06:32:47;;;;;;;37.30;18.35;;;;;;;1.13;100.00;102640.16;5073474;28;21032;-66
2022/01/19 06:35:13;;;;;;;34.08;16.45;;;;;;;1.13;100.00;102643.66;5071901;28;20387;-65
2022/01/19 06:37:38;;;;;;;34.72;18.27;;;;;;;1.16;100.00;102645.25;5073191;28;20885;-65
2022/01/19 06:40:06;;;;;;;35.42;17.73;;;;;;;1.12;100.00;102641.09;5073337;28;20029;-65
2022/01/19 06:42:31;;;;;;;35.25;17.23;;;;;;;1.18;100.00;102640.72;5071753;28;20025;-65
2022/01/19 06:44:57;;;;;;;36.08;17.25;;;;;;;1.18;100.00;102641.59;5073133;28;20422;-65
2022/01/19 06:47:22;;;;;;;33.50;17.45;;;;;;;1.11;100.00;102624.50;5071851;28;20025;-65
2022/01/19 06:49:47;;;;;;;29.15;15.77;;;;;;;1.18;100.00;102631.09;5073064;28;20499;-65
2022/01/19 06:52:13;;;;;;;34.33;19.63;;;;;;;1.20;100.00;102621.31;5072925;28;20182;-66
2022/01/19 06:54:38;;;;;;;41.03;19.38;;;;;;;1.21;100.00;102630.06;5092329;28;20074;-65
2022/01/19 06:57:04;;;;;;;32.45;18.17;;;;;;;1.17;100.00;102604.88;5092279;28;20036;-65
2022/01/19 06:59:30;;;;;;;35.28;16.63;;;;;;;1.21;100.00;102603.78;5091690;28;20024;-65
2022/01/19 07:01:55;;;;;;;31.35;15.63;;;;;;;1.23;100.00;102601.88;5073284;28;20089;-65
2022/01/19 07:04:20;;;;;;;32.13;16.08;;;;;;;1.24;100.00;102606.22;5072702;28;20085;-65
2022/01/19 07:06:46;;;;;;;30.92;16.30;;;;;;;1.25;100.00;102602.63;5072589;28;20068;-65
2022/01/19 07:09:11;;;;;;;31.30;16.52;;;;;;;1.26;100.00;102601.72;5072808;28;20032;-65
2022/01/19 07:11:37;;;;;;;32.60;15.50;;;;;;;1.26;100.00;102606.97;5072527;28;20377;-65
2022/01/19 07:14:04;;;;;;;30.58;16.40;;;;;;;1.27;100.00;102606.03;5072396;28;20028;-65
2022/01/19 07:16:30;;;;;;;29.30;15.65;;;;;;;1.27;100.00;102601.59;5070940;28;20020;-66
2022/01/19 07:18:55;;;;;;;31.35;15.90;;;;;;;1.27;100.00;102593.72;5072428;28;20163;-65
2022/01/19 07:21:21;;;;;;;27.70;14.80;;;;;;;1.30;100.00;102597.94;5071131;28;20032;-65
2022/01/19 07:23:46;;;;;;;27.95;16.17;;;;;;;1.31;100.00;102589.13;5072252;28;20036;-66
2022/01/19 07:26:12;;;;;;;35.17;15.70;;;;;;;1.33;100.00;102583.78;5072123;28;20086;-66
2022/01/19 07:28:37;;;;;;;34.53;15.95;;;;;;;1.28;100.00;102582.28;5072299;28;20047;-65
2022/01/19 07:31:02;;;;;;;32.92;15.85;;;;;;;1.35;100.00;102593.25;5071104;28;20199;-65
2022/01/19 07:33:28;;;;;;;29.30;16.70;;;;;;;1.38;100.00;102592.22;5072351;28;20050;-65
2022/01/19 07:35:54;;;;;;;26.55;13.88;;;;;;;1.38;100.00;102579.91;5072599;28;20093;-65
2022/01/19 07:38:19;;;;;;;35.85;17.02;;;;;;;1.40;100.00;102578.06;5072228;28;20040;-65
2022/01/19 07:40:45;;;;;;;33.70;16.92;;;;;;;1.39;100.00;102583.38;5071985;28;20032;-65
2022/01/19 07:43:10;;;;;;;31.35;17.00;;;;;;;1.42;100.00;102581.44;5071615;28;20070;-66
2022/01/19 07:45:36;;;;;;;29.58;16.77;;;;;;;1.44;100.00;102573.44;5071743;28;20384;-65
2022/01/19 07:48:01;;;;;;;29.90;16.67;;;;;;;1.44;100.00;102579.56;5072063;28;20021;-65
2022/01/19 07:50:27;;;;;;;32.17;18.25;;;;;;;1.47;100.00;102586.41;5072027;28;20145;-65
2022/01/19 07:52:53;;;;;;;29.17;14.13;;;;;;;1.44;100.00;102576.94;5071932;28;20032;-66
2022/01/19 07:55:18;;;;;;;31.42;15.02;;;;;;;1.46;100.00;102574.19;5071610;28;20020;-65
2022/01/19 07:57:49;;;;;;;31.50;16.23;;;;;;;1.50;100.00;102580.97;5091285;28;20024;-66
2022/01/19 08:00:15;;;;;;;32.70;16.42;;;;;;;1.54;100.00;102574.56;5091426;28;20028;-66
2022/01/19 08:02:41;;;;;;;35.20;15.00;;;;;;;1.54;100.00;102564.88;5091161;28;20027;-65
2022/01/19 08:05:09;;;;;;;32.83;16.83;;;;;;;1.56;100.00;102563.97;5090636;28;20098;-65
2022/01/19 08:07:35;;;;;;;28.30;15.10;;;;;;;1.57;100.00;102561.22;5090926;28;20035;-65
2022/01/19 08:10:03;;;;;;;27.92;16.25;;;;;;;1.58;100.00;102559.47;5090716;28;20024;-65
2022/01/19 08:12:28;;;;;;;31.45;15.45;;;;;;;1.58;100.00;102560.28;5090862;28;20451;-66
2022/01/19 08:14:54;;;;;;;34.22;17.02;;;;;;;1.62;100.00;102558.31;5090345;28;20051;-65
2022/01/19 08:17:19;;;;;;;26.48;14.40;;;;;;;1.62;100.00;102547.78;5090459;28;20557;-65
2022/01/19 08:19:45;;;;;;;29.33;15.27;;;;;;;1.62;100.00;102546.00;5071320;28;20025;-65
2022/01/19 08:22:10;;;;;;;30.38;16.67;;;;;;;1.65;100.00;102544.97;5090618;28;20032;-65
2022/01/19 08:24:36;;;;;;;26.10;13.73;;;;;;;1.66;100.00;102550.13;5088657;28;20047;-66
2022/01/19 08:27:01;;;;;;;25.80;13.23;;;;;;;1.66;100.00;102541.41;5090167;28;20052;-66
2022/01/19 08:29:27;;;;;;;27.50;14.68;;;;;;;1.69;100.00;102544.69;5090493;28;20040;-66
2022/01/19 08:31:52;;;;;;;32.03;13.43;;;;;;;1.71;100.00;102550.69;5089150;28;20043;-66
2022/01/19 08:34:17;;;;;;;29.13;14.05;;;;;;;1.74;100.00;102541.75;5089258;28;20040;-66
2022/01/19 08:36:44;;;;;;;29.67;15.95;;;;;;;1.75;100.00;102546.06;5090405;28;20081;-66
2022/01/19 08:39:10;;;;;;;29.63;14.77;;;;;;;1.78;100.00;102548.50;5090195;28;20063;-66
2022/01/19 08:41:35;;;;;;;29.27;15.52;;;;;;;1.74;100.00;102525.97;5090480;28;20059;-67
2022/01/19 08:44:00;;;;;;;25.25;12.05;;;;;;;1.85;100.00;102533.19;5090147;28;20043;-66
2022/01/19 08:46:26;;;;;;;25.38;14.20;;;;;;;1.86;100.00;102529.59;5090404;28;20036;-66
2022/01/19 08:48:51;;;;;;;25.92;12.35;;;;;;;1.90;100.00;102523.22;5090094;28;20124;-67
2022/01/19 08:51:17;;;;;;;33.10;15.23;;;;;;;1.91;100.00;102515.25;5090174;28;20097;-66
2022/01/19 08:53:42;;;;;;;26.02;12.07;;;;;;;1.95;100.00;102521.97;5089984;28;20520;-66
2022/01/19 08:56:08;;;;;;;26.48;14.15;;;;;;;1.97;100.00;102517.47;5090147;28;20020;-66
2022/01/19 08:58:33;;;;;;;27.10;12.35;;;;;;;1.97;100.00;102503.47;5089975;28;20027;-67
2022/01/19 09:00:58;;;;;;;23.77;11.38;;;;;;;2.01;100.00;102512.00;5090125;28;20028;-66
2022/01/19 09:03:24;;;;;;;28.08;14.13;;;;;;;1.99;100.00;102496.28;5089798;28;20047;-67
2022/01/19 09:05:49;;;;;;;29.77;12.32;;;;;;;2.06;100.00;102504.66;5072066;28;20074;-66
2022/01/19 09:08:15;;;;;;;31.17;15.48;;;;;;;2.04;100.00;102499.47;5089765;28;20119;-66
2022/01/19 09:10:41;;;;;;;26.73;12.80;;;;;;;2.11;100.00;102508.66;5089778;28;20502;-66
2022/01/19 09:13:09;;;;;;;23.63;11.05;;;;;;;2.12;100.00;102496.34;5089691;28;20024;-66
2022/01/19 09:15:35;;;;;;;26.65;13.05;;;;;;;2.14;100.00;102500.56;5089938;28;20047;-66
2022/01/19 09:18:00;;;;;;;29.52;15.27;;;;;;;2.17;100.00;102486.34;5089652;28;20883;-66
2022/01/19 09:20:26;;;;;;;24.52;12.55;;;;;;;2.18;100.00;102488.91;5089211;28;20028;-66
2022/01/19 09:22:51;;;;;;;26.52;13.32;;;;;;;2.21;100.00;102489.66;5089637;28;20056;-66
2022/01/19 09:25:17;;;;;;;31.90;15.35;;;;;;;2.19;100.00;102480.03;5089303;28;20111;-66
2022/01/19 09:27:42;;;;;;;27.58;14.80;;;;;;;2.25;100.00;102483.22;5089215;28;20081;-66
2022/01/19 09:30:14;;;;;;;23.92;11.00;;;;;;;2.28;100.00;102483.00;5089088;28;20032;-66
2022/01/19 09:32:39;;;;;;;25.88;13.18;;;;;;;2.28;100.00;102477.75;5089388;28;20035;-66
2022/01/19 09:35:09;;;;;;;25.70;12.55;;;;;;;2.29;100.00;102479.44;5088336;28;20032;-66
2022/01/19 09:37:38;;;;;;;26.77;13.13;;;;;;;2.32;100.00;102468.72;5089265;28;20073;-66
2022/01/19 09:40:06;;;;;;;24.13;12.68;;;;;;;2.31;100.00;102462.59;5088596;28;20474;-66
2022/01/19 09:42:32;;;;;;;26.67;13.35;;;;;;;2.34;100.00;102467.66;5089192;28;20036;-68
2022/01/19 09:44:57;;;;;;;25.60;11.45;;;;;;;2.35;100.00;102464.06;5089182;28;20111;-69
2022/01/19 09:47:23;;;;;;;23.95;11.40;;;;;;;2.39;100.00;102457.66;5089396;28;20074;-69
2022/01/19 09:49:48;;;;;;;28.67;12.38;;;;;;;2.40;100.00;102461.13;5089321;28;20032;-68
2022/01/19 09:52:14;;;;;;;26.08;12.75;;;;;;;2.41;100.00;102455.78;5089176;28;20020;-69
2022/01/19 09:54:39;;;;;;;24.15;12.02;;;;;;;2.42;100.00;102449.56;5089303;28;20055;-69
2022/01/19 09:57:05;;;;;;;24.90;13.05;;;;;;;2.45;100.00;102445.03;5089367;28;20032;-69
2022/01/19 09:59:31;;;;;;;25.95;11.85;;;;;;;2.45;100.00;102435.34;5089147;28;20497;-69
2022/01/19 10:02:05;;;;;;;24.88;11.48;;;;;;;2.48;100.00;102427.22;5089149;28;20118;-69
2022/01/19 10:04:33;;;;;;;24.52;10.77;;;;;;;2.46;100.00;102418.56;5089276;28;20040;-69
2022/01/19 10:07:18;;;;;;;25.20;12.57;;;;;;;2.56;100.00;102427.53;5088616;28;20048;-68
2022/01/19 10:09:54;;;;;;;29.17;13.85;;;;;;;2.58;100.00;102430.06;5089069;28;20031;-69
2022/01/19 10:18:22;;;;;;;26.08;12.10;;;;;;;2.67;100.00;102432.06;5089295;28;20039;-69
2022/01/19 10:21:12;;;;;;;27.08;12.48;;;;;;;2.70;100.00;102429.25;5088830;28;20191;-69
2022/01/19 10:23:52;;;;;;;26.40;13.43;;;;;;;2.73;100.00;102428.19;5088573;28;20319;-69
2022/01/19 10:26:26;;;;;;;26.83;11.50;;;;;;;2.74;100.00;102417.53;5089055;28;20039;-69
2022/01/19 10:29:05;;;;;;;27.85;12.63;;;;;;;2.79;100.00;102420.69;5087080;28;20024;-69
2022/01/19 10:31:32;;;;;;;22.10;11.02;;;;;;;2.81;100.00;102412.69;5088834;28;20028;-69
2022/01/19 10:34:16;;;;;;;29.58;12.77;;;;;;;2.83;100.00;102398.44;5088643;28;20070;-69
2022/01/19 10:36:47;;;;;;;26.55;13.85;;;;;;;2.84;100.00;102399.28;5088664;28;20039;-68
2022/01/19 10:39:14;;;;;;;23.45;13.85;;;;;;;2.87;100.00;102399.06;5088917;28;20052;-69
2022/01/19 10:42:03;;;;;;;24.48;11.13;;;;;;;2.91;100.00;102390.00;5088857;28;20050;-69
2022/01/19 10:44:56;;;;;;;24.83;12.20;;;;;;;2.92;100.00;102372.41;5088419;28;20063;-69
2022/01/19 10:47:46;;;;;;;25.02;13.18;;;;;;;3.00;100.00;102386.69;5088749;28;20024;-68
2022/01/19 10:50:14;;;;;;;24.17;11.60;;;;;;;3.05;100.00;102386.38;5089279;28;20104;-69
2022/01/19 10:52:43;;;;;;;23.88;11.80;;;;;;;3.09;100.00;102374.66;5092461;28;20032;-69
2022/01/19 10:55:24;;;;;;;26.50;12.40;;;;;;;3.09;100.00;102369.38;5092478;28;20024;-68
2022/01/19 10:57:51;;;;;;;24.63;11.38;;;;;;;3.16;100.00;102375.06;5092436;28;20027;-69
2022/01/19 11:00:22;;;;;;;25.08;12.02;;;;;;;3.17;100.00;102367.06;5092103;28;20048;-69
2022/01/19 11:02:50;;;;;;;24.30;11.32;;;;;;;3.21;100.00;102362.41;5091985;28;20103;-68
2022/01/19 11:05:16;;;;;;;26.38;12.95;;;;;;;3.20;100.00;102360.72;5091821;28;20044;-68
2022/01/19 11:07:42;;;;;;;24.48;11.55;;;;;;;3.14;100.00;102343.53;5092000;28;20101;-68
2022/01/19 11:10:17;;;;;;;24.17;11.35;;;;;;;3.25;100.00;102348.06;5092189;28;20027;-67
2022/01/19 11:12:50;;;;;;;26.15;10.98;;;;;;;3.28;100.00;102348.66;5091944;28;20548;-67
2022/01/19 11:15:19;;;;;;;20.52;10.48;;;;;;;3.27;100.00;102338.22;5091566;28;20023;-68
2022/01/19 11:17:46;;;;;;;29.77;15.07;;;;;;;3.31;100.00;102333.56;5091736;28;20028;-68
2022/01/19 11:20:14;;;;;;;24.13;11.85;;;;;;;3.32;100.00;102329.97;5091556;28;20032;-67
2022/01/19 11:23:04;;;;;;;23.80;11.55;;;;;;;3.36;100.00;102342.00;5091769;28;20118;-68
2022/01/19 11:25:49;;;;;;;50.83;14.05;;;;;;;3.33;100.00;102332.50;5091723;28;20027;-67
2022/01/19 11:28:27;;;;;;;26.40;11.95;;;;;;;3.31;100.00;102323.88;5091832;28;20028;-67
2022/01/19 11:30:53;;;;;;;25.05;12.65;;;;;;;3.29;100.00;102312.59;5091235;28;20050;-67
2022/01/19 11:33:26;;;;;;;25.13;13.57;;;;;;;3.32;100.00;102312.34;5091676;28;20107;-67
2022/01/19 11:35:57;;;;;;;25.17;12.68;;;;;;;3.34;100.00;102309.63;5091602;28;20037;-67
2022/01/19 11:38:31;;;;;;;29.13;12.70;;;;;;;3.31;100.00;102299.31;5091626;28;20035;-67
2022/01/19 11:41:02;;;;;;;30.35;13.50;;;;;;;3.29;100.00;102302.88;5091687;28;20024;-67
2022/01/19 11:43:30;;;;;;;30.70;16.98;;;;;;;3.28;100.00;102297.72;5091424;28;20074;-67
2022/01/19 11:45:58;;;;;;;26.45;12.88;;;;;;;3.26;100.00;102295.19;5091614;28;20020;-67
2022/01/19 11:48:31;;;;;;;28.08;14.05;;;;;;;3.24;100.00;102283.91;5072003;28;20055;-67
2022/01/19 11:51:26;;;;;;;29.55;14.30;;;;;;;3.29;100.00;102273.03;5072061;28;20024;-67
2022/01/19 11:54:31;;;;;;;26.88;13.57;;;;;;;3.31;100.00;102265.84;5091097;28;20375;-67
2022/01/19 11:56:59;;;;;;;26.77;13.23;;;;;;;3.32;100.00;102264.88;5049003;28;20508;-67
2022/01/19 11:59:29;;;;;;;24.58;12.38;;;;;;;3.33;100.00;102256.03;5068064;28;20036;-67
2022/01/19 12:02:28;;;;;;;28.52;14.20;;;;;;;3.34;100.00;102247.16;5071067;28;20035;-68
2022/01/19 12:04:54;;;;;;;28.55;13.77;;;;;;;3.34;100.00;102243.69;5090374;28;20043;-67
2022/01/19 12:07:42;;;;;;;27.67;15.10;;;;;;;3.34;100.00;102247.16;5090830;28;20051;-67
2022/01/19 12:10:16;;;;;;;29.92;14.82;;;;;;;3.35;100.00;102254.09;5089511;28;20028;-67
2022/01/19 12:12:56;;;;;;;30.73;14.05;;;;;;;3.35;100.00;102234.81;5071415;28;20903;-67
2022/01/19 12:15:58;;;;;;;27.30;13.90;;;;;;;3.38;100.00;102234.56;5090787;28;20058;-67
2022/01/19 12:18:44;;;;;;;24.73;11.85;;;;;;;3.38;100.00;102214.34;5090908;28;20053;-67
2022/01/19 12:21:15;;;;;;;27.35;14.88;;;;;;;3.34;100.00;102210.25;5090531;28;20020;-67
2022/01/19 12:23:42;;;;;;;32.30;14.38;;;;;;;3.39;100.00;102208.09;5090692;28;20410;-67
2022/01/19 12:26:09;;;;;;;29.83;14.70;;;;;;;3.40;100.00;102195.75;5090063;28;20416;-67
2022/01/19 12:28:40;;;;;;;28.58;15.05;;;;;;;3.46;100.00;102204.06;5090488;28;20043;-67
2022/01/19 12:31:24;;;;;;;34.85;16.38;;;;;;;3.53;100.00;102193.84;5090496;28;20035;-67
2022/01/19 12:34:04;;;;;;;32.65;15.82;;;;;;;3.56;100.00;102185.72;5084936;28;20029;-67
2022/01/19 12:37:02;;;;;;;29.35;15.98;;;;;;;3.60;99.95;102195.09;5074335;28;20059;-66
2022/01/19 12:39:28;;;;;;;32.15;15.00;;;;;;;3.63;99.85;102197.47;5050097;28;20039;-67